Time;durP1;ratioP1;P1;durP2;ratioP2;P2;SDS_P1;SDS_P2;PMS_P1;PMS_P2;Temp;Humidity;BMP_temperature;BMP_pressure;BME280_temperature;BME280_humidity;BME280_pressure;Samples;Min_cycle;Max_cycle;Signal;HPM_P1;HPM_P2
2023/09/23 00:01:21;;;;;;;4.65;2.80;;;13.20;99.90;;;;;;5012018;28;20076;-57
2023/09/23 00:03:47;;;;;;;2.55;2.30;;;13.20;99.90;;;;;;5014872;28;20073;-59
2023/09/23 00:06:13;;;;;;;5.55;2.28;;;13.20;99.90;;;;;;5012952;28;20042;-59
2023/09/23 00:08:41;;;;;;;3.80;1.88;;;13.20;99.90;;;;;;5012849;28;20467;-59
2023/09/23 00:11:08;;;;;;;4.40;2.17;;;13.10;99.90;;;;;;5007628;28;20616;-60
2023/09/23 00:13:35;;;;;;;3.33;1.90;;;13.10;99.90;;;;;;5024529;28;20060;-57
2023/09/23 00:16:14;;;;;;;3.35;2.00;;;13.10;99.90;;;;;;5011320;28;20044;-59
2023/09/23 00:18:40;;;;;;;3.28;1.60;;;13.10;99.90;;;;;;5028634;28;20046;-57
2023/09/23 00:21:08;;;;;;;4.63;2.20;;;13.00;99.90;;;;;;5015455;28;21398;-58
2023/09/23 00:23:34;;;;;;;4.07;1.85;;;13.00;99.90;;;;;;5013131;28;20089;-60
2023/09/23 00:26:01;;;;;;;2.53;1.63;;;13.10;99.90;;;;;;5012910;28;20084;-58
2023/09/23 00:28:30;;;;;;;4.40;1.75;;;13.00;99.90;;;;;;5011539;28;20046;-59
2023/09/23 00:31:05;;;;;;;1.70;1.60;;;13.00;99.90;;;;;;5026544;28;20600;-59
2023/09/23 00:33:31;;;;;;;2.42;1.60;;;13.00;99.90;;;;;;5013908;28;20144;-58
2023/09/23 00:35:58;;;;;;;4.97;1.63;;;13.00;99.90;;;;;;5011308;28;20120;-59
2023/09/23 00:38:24;;;;;;;3.78;1.80;;;13.00;99.90;;;;;;5009627;28;20064;-59
2023/09/23 00:40:51;;;;;;;2.22;1.60;;;13.00;99.90;;;;;;5007731;28;20041;-57
2023/09/23 00:43:18;;;;;;;3.60;1.42;;;12.90;99.90;;;;;;5024328;28;20041;-57
2023/09/23 00:45:48;;;;;;;3.05;1.52;;;12.90;99.90;;;;;;5011357;28;20376;-57
2023/09/23 00:48:18;;;;;;;2.85;1.65;;;12.90;99.90;;;;;;5010879;28;20033;-57
2023/09/23 00:50:48;;;;;;;2.13;1.42;;;12.90;99.90;;;;;;5013405;28;20068;-59
2023/09/23 00:53:14;;;;;;;2.67;1.40;;;12.80;99.90;;;;;;5010905;28;20040;-59
2023/09/23 00:55:44;;;;;;;1.40;1.27;;;12.90;99.90;;;;;;5011986;28;20379;-59
2023/09/23 00:58:17;;;;;;;1.92;1.40;;;12.80;99.90;;;;;;5010605;28;20511;-59
2023/09/23 01:00:43;;;;;;;3.50;1.27;;;12.80;99.90;;;;;;5029023;28;20435;-56
2023/09/23 01:03:10;;;;;;;2.03;1.10;;;12.70;99.90;;;;;;5015868;28;20037;-59
2023/09/23 01:05:36;;;;;;;2.15;1.02;;;12.70;99.90;;;;;;4996787;28;20112;-57
2023/09/23 01:08:06;;;;;;;1.35;0.90;;;12.70;99.90;;;;;;5010683;28;20046;-58
2023/09/23 01:10:32;;;;;;;1.83;0.90;;;12.70;99.90;;;;;;5011963;28;20037;-59
2023/09/23 01:12:58;;;;;;;3.00;0.90;;;12.60;99.90;;;;;;5028650;28;20038;-57
2023/09/23 01:15:27;;;;;;;3.10;0.95;;;12.60;99.90;;;;;;5015793;28;20096;-58
2023/09/23 01:17:53;;;;;;;3.42;1.00;;;12.60;99.90;;;;;;5011494;28;20049;-58
2023/09/23 01:20:21;;;;;;;1.38;0.95;;;12.60;99.90;;;;;;5013677;28;20485;-55
2023/09/23 01:22:47;;;;;;;1.45;0.90;;;12.60;99.90;;;;;;5012313;28;20116;-58
2023/09/23 01:25:13;;;;;;;1.65;0.98;;;12.60;99.90;;;;;;5015613;28;20041;-58
2023/09/23 01:27:39;;;;;;;4.45;1.10;;;12.60;99.90;;;;;;5011892;28;20249;-58
2023/09/23 01:30:06;;;;;;;2.22;1.10;;;12.60;99.90;;;;;;5012596;28;20067;-58
2023/09/23 01:32:47;;;;;;;3.13;1.30;;;12.60;99.90;;;;;;5014419;28;20046;-59
2023/09/23 01:35:16;;;;;;;1.40;1.25;;;12.60;99.90;;;;;;5013025;28;20962;-59
2023/09/23 01:37:46;;;;;;;3.20;1.48;;;12.50;99.90;;;;;;5014790;28;20081;-57
2023/09/23 01:40:19;;;;;;;1.88;1.10;;;12.50;99.90;;;;;;5010731;28;20053;-58
2023/09/23 01:42:49;;;;;;;2.80;1.30;;;12.50;99.90;;;;;;5011952;28;20048;-58
2023/09/23 01:45:15;;;;;;;1.30;1.02;;;12.50;99.90;;;;;;5011442;28;20496;-58
2023/09/23 01:47:41;;;;;;;1.30;1.00;;;12.50;99.90;;;;;;5005949;28;20159;-57
2023/09/23 01:50:09;;;;;;;2.03;1.20;;;12.50;99.90;;;;;;4998336;28;20045;-58
2023/09/23 01:52:36;;;;;;;1.45;1.23;;;12.50;99.90;;;;;;5014348;28;20073;-59
2023/09/23 01:55:05;;;;;;;1.30;1.10;;;12.40;99.90;;;;;;5008545;28;20050;-58
2023/09/23 01:57:33;;;;;;;4.32;1.40;;;12.40;99.90;;;;;;5013470;28;20505;-58
2023/09/23 02:00:10;;;;;;;1.73;1.15;;;12.40;99.90;;;;;;5012707;28;20041;-59
2023/09/23 02:02:39;;;;;;;3.47;1.50;;;12.40;99.90;;;;;;5013660;28;20049;-58
2023/09/23 02:05:06;;;;;;;2.03;1.15;;;12.40;99.90;;;;;;5011751;28;20045;-58
2023/09/23 02:07:31;;;;;;;3.65;2.00;;;12.40;99.90;;;;;;5015905;28;20569;-59
2023/09/23 02:09:57;;;;;;;4.68;2.80;;;12.30;99.90;;;;;;5011014;28;20030;-59
2023/09/23 02:12:23;;;;;;;4.45;2.20;;;12.30;99.90;;;;;;4994303;28;20041;-59
2023/09/23 02:14:50;;;;;;;3.50;1.70;;;12.30;99.90;;;;;;5013106;28;20388;-59
2023/09/23 02:17:16;;;;;;;2.85;1.60;;;12.30;99.90;;;;;;4996033;28;20072;-59
2023/09/23 02:19:42;;;;;;;2.13;1.60;;;12.30;99.90;;;;;;5012546;28;20041;-59
2023/09/23 02:22:08;;;;;;;3.70;1.20;;;12.20;99.90;;;;;;5009655;28;20898;-58
2023/09/23 02:24:36;;;;;;;2.72;1.20;;;12.20;99.90;;;;;;4993259;28;20053;-59
2023/09/23 02:27:03;;;;;;;3.28;1.50;;;12.20;99.90;;;;;;5012159;28;20041;-57
2023/09/23 02:29:30;;;;;;;2.47;1.60;;;12.20;99.90;;;;;;5001584;28;20095;-58
2023/09/23 02:31:56;;;;;;;4.65;1.73;;;12.20;99.90;;;;;;5011510;28;20050;-59
2023/09/23 02:34:23;;;;;;;2.45;1.77;;;12.20;99.90;;;;;;5013468;28;20091;-57
2023/09/23 02:36:51;;;;;;;2.28;1.73;;;12.20;99.90;;;;;;5010686;28;20046;-58
2023/09/23 02:39:20;;;;;;;3.63;2.08;;;12.20;99.90;;;;;;5006910;28;20057;-58
2023/09/23 02:41:50;;;;;;;3.55;1.98;;;12.10;99.90;;;;;;5010325;28;20128;-58
2023/09/23 02:44:22;;;;;;;3.95;2.03;;;12.10;99.90;;;;;;5007458;28;20077;-58
2023/09/23 02:46:54;;;;;;;3.65;2.60;;;12.10;99.90;;;;;;5009743;28;20092;-58
2023/09/23 02:49:20;;;;;;;4.90;3.30;;;12.10;99.90;;;;;;5006370;28;20124;-58
2023/09/23 02:51:48;;;;;;;6.88;4.35;;;12.00;99.90;;;;;;5012457;28;20107;-59
2023/09/23 02:54:17;;;;;;;6.07;4.70;;;12.10;99.90;;;;;;5013938;28;20155;-57
2023/09/23 02:56:50;;;;;;;7.10;5.50;;;12.10;99.90;;;;;;5010383;28;20053;-56
2023/09/23 02:59:21;;;;;;;9.07;6.10;;;12.10;99.90;;;;;;5012289;28;20080;-58
2023/09/23 03:01:51;;;;;;;6.78;5.75;;;12.10;99.90;;;;;;5012695;28;20060;-58
2023/09/23 03:04:23;;;;;;;9.45;6.55;;;12.10;99.90;;;;;;5010507;28;20041;-59
2023/09/23 03:06:53;;;;;;;12.10;6.80;;;12.00;99.90;;;;;;5013252;28;20042;-58
2023/09/23 03:09:31;;;;;;;11.18;7.88;;;12.00;99.90;;;;;;5015586;28;20041;-59
2023/09/23 03:11:59;;;;;;;10.60;7.47;;;12.00;99.90;;;;;;5016737;28;20030;-58
2023/09/23 03:14:36;;;;;;;7.72;6.20;;;12.00;99.90;;;;;;5015425;28;20588;-57
2023/09/23 03:17:03;;;;;;;9.20;7.55;;;12.00;99.90;;;;;;5019272;28;20029;-58
2023/09/23 03:19:31;;;;;;;12.20;7.65;;;12.00;99.90;;;;;;5021853;28;20061;-57
2023/09/23 03:21:58;;;;;;;13.45;8.90;;;12.00;99.90;;;;;;5016215;28;20044;-59
2023/09/23 03:24:25;;;;;;;15.63;11.00;;;12.00;99.90;;;;;;5015107;28;20030;-57
2023/09/23 03:26:56;;;;;;;15.93;10.27;;;12.00;99.90;;;;;;5015189;28;20037;-57
2023/09/23 03:29:22;;;;;;;14.80;10.40;;;12.00;99.90;;;;;;5015815;28;20159;-58
2023/09/23 03:31:49;;;;;;;12.85;9.95;;;12.00;99.90;;;;;;5016592;28;20095;-59
2023/09/23 03:34:16;;;;;;;12.38;8.95;;;11.90;99.90;;;;;;5015772;28;20482;-58
2023/09/23 03:36:42;;;;;;;12.95;9.05;;;11.90;99.90;;;;;;5015666;28;20061;-59
2023/09/23 03:39:09;;;;;;;12.30;9.50;;;11.90;99.90;;;;;;5015153;28;20184;-59
2023/09/23 03:41:37;;;;;;;12.15;8.45;;;11.90;99.90;;;;;;5014526;28;20129;-58
2023/09/23 03:44:07;;;;;;;12.38;8.20;;;11.90;99.90;;;;;;5017127;28;20547;-58
2023/09/23 03:46:33;;;;;;;8.85;7.82;;;11.80;99.90;;;;;;5016191;28;20037;-58
2023/09/23 03:49:00;;;;;;;13.70;7.55;;;11.90;99.90;;;;;;5017528;28;20044;-57
2023/09/23 03:51:26;;;;;;;8.30;6.90;;;11.80;99.90;;;;;;5016151;28;20045;-58
2023/09/23 03:53:52;;;;;;;13.57;7.72;;;11.80;99.90;;;;;;5005106;28;20698;-58
2023/09/23 03:56:24;;;;;;;11.52;8.05;;;11.80;99.90;;;;;;5019305;28;20049;-59
2023/09/23 03:58:55;;;;;;;9.30;7.47;;;11.80;99.90;;;;;;5013820;28;20052;-59
2023/09/23 04:01:24;;;;;;;10.35;7.53;;;11.80;99.90;;;;;;5015110;28;20156;-59
2023/09/23 04:03:53;;;;;;;9.02;7.63;;;11.80;99.90;;;;;;5028531;28;20052;-57
2023/09/23 04:06:19;;;;;;;11.20;7.22;;;11.80;99.90;;;;;;5016324;28;20498;-58
2023/09/23 04:08:46;;;;;;;10.55;7.97;;;11.70;99.90;;;;;;5029198;28;20061;-58
2023/09/23 04:11:15;;;;;;;9.23;7.13;;;11.70;99.90;;;;;;5014515;28;20048;-59
2023/09/23 04:13:47;;;;;;;10.32;7.68;;;11.80;99.90;;;;;;5012347;28;20037;-58
2023/09/23 04:16:14;;;;;;;12.63;8.00;;;11.70;99.90;;;;;;5031166;28;20045;-58
2023/09/23 04:18:40;;;;;;;8.60;7.70;;;11.70;99.90;;;;;;5015275;28;20081;-60
2023/09/23 04:21:08;;;;;;;11.15;7.97;;;11.70;99.90;;;;;;5015992;28;20103;-59
2023/09/23 04:23:34;;;;;;;10.80;8.02;;;11.70;99.90;;;;;;5016968;28;20064;-58
2023/09/23 04:26:02;;;;;;;11.60;8.50;;;11.70;99.90;;;;;;5012357;28;20113;-57
2023/09/23 04:28:28;;;;;;;10.63;8.95;;;11.70;99.90;;;;;;5012047;28;20056;-59
2023/09/23 04:30:55;;;;;;;13.85;9.35;;;11.70;99.90;;;;;;5013663;28;20041;-59
2023/09/23 04:33:22;;;;;;;11.73;9.88;;;11.70;99.90;;;;;;5015285;28;20041;-59
2023/09/23 04:35:48;;;;;;;13.68;11.02;;;11.60;99.90;;;;;;5014176;28;20244;-57
2023/09/23 04:38:15;;;;;;;10.15;8.95;;;11.60;99.90;;;;;;5012755;28;20050;-58
2023/09/23 04:40:42;;;;;;;10.77;8.52;;;11.60;99.90;;;;;;5013126;28;20050;-59
2023/09/23 04:43:10;;;;;;;10.10;7.65;;;11.60;99.90;;;;;;5012317;28;20081;-58
2023/09/23 04:45:37;;;;;;;9.80;7.80;;;11.60;99.90;;;;;;5017390;28;20037;-58
2023/09/23 04:48:06;;;;;;;12.20;8.27;;;11.60;99.90;;;;;;5016038;28;20037;-59
2023/09/23 04:50:32;;;;;;;11.30;7.90;;;11.60;99.90;;;;;;5015659;28;20394;-59
2023/09/23 04:52:59;;;;;;;9.38;7.25;;;11.60;99.90;;;;;;5015214;28;20091;-58
2023/09/23 04:55:26;;;;;;;10.45;8.05;;;11.60;99.90;;;;;;5013010;28;20038;-59
2023/09/23 04:57:51;;;;;;;10.15;7.57;;;11.60;99.90;;;;;;5012900;28;20029;-58
2023/09/23 05:00:18;;;;;;;9.35;7.57;;;11.60;99.90;;;;;;5017299;28;20043;-59
2023/09/23 05:02:48;;;;;;;7.90;7.10;;;11.60;99.90;;;;;;5013709;28;20091;-58
2023/09/23 05:05:14;;;;;;;8.13;6.68;;;11.50;99.90;;;;;;5015462;28;20516;-57
2023/09/23 05:07:41;;;;;;;12.30;7.20;;;11.50;99.90;;;;;;5013983;28;20052;-58
2023/09/23 05:10:07;;;;;;;8.82;6.50;;;11.60;99.90;;;;;;5030829;28;20041;-58
2023/09/23 05:12:33;;;;;;;10.65;6.68;;;11.50;99.90;;;;;;5013720;28;20037;-58
2023/09/23 05:15:00;;;;;;;8.45;6.75;;;11.50;99.90;;;;;;5011689;28;20041;-59
2023/09/23 05:17:28;;;;;;;7.57;6.60;;;11.50;99.90;;;;;;5010605;28;20547;-58
2023/09/23 05:19:54;;;;;;;9.02;7.00;;;11.50;99.90;;;;;;5015325;28;20050;-60
2023/09/23 05:22:20;;;;;;;8.80;6.57;;;11.40;99.90;;;;;;5017233;28;20111;-57
2023/09/23 05:24:50;;;;;;;8.80;6.93;;;11.50;99.90;;;;;;5030197;28;20049;-58
2023/09/23 05:27:16;;;;;;;8.90;7.20;;;11.50;99.90;;;;;;5018084;28;20045;-58
2023/09/23 05:29:44;;;;;;;11.18;7.63;;;11.40;99.90;;;;;;5016226;28;20037;-57
2023/09/23 05:32:11;;;;;;;11.68;7.57;;;11.40;99.90;;;;;;5014238;28;20148;-58
2023/09/23 05:34:41;;;;;;;11.98;6.70;;;11.40;99.90;;;;;;5034474;28;20041;-60
2023/09/23 05:37:12;;;;;;;8.18;6.65;;;11.40;99.90;;;;;;5036286;28;20037;-57
2023/09/23 05:39:44;;;;;;;8.45;7.05;;;11.40;99.90;;;;;;5038194;28;20061;-55
2023/09/23 05:42:10;;;;;;;9.05;7.25;;;11.30;99.90;;;;;;5036605;28;20063;-60
2023/09/23 05:44:36;;;;;;;8.38;6.93;;;11.30;99.90;;;;;;5039211;28;20097;-61
2023/09/23 05:47:02;;;;;;;9.07;6.75;;;11.30;99.90;;;;;;5037402;28;20034;-57
2023/09/23 05:49:28;;;;;;;8.80;6.72;;;11.30;99.90;;;;;;5036557;28;20048;-61
2023/09/23 05:51:54;;;;;;;8.85;7.43;;;11.30;99.90;;;;;;5039177;28;20124;-60
2023/09/23 05:54:20;;;;;;;9.73;7.35;;;11.30;99.90;;;;;;5035530;28;20069;-61
2023/09/23 05:56:46;;;;;;;8.68;7.20;;;11.30;99.90;;;;;;5033150;28;20068;-59
2023/09/23 05:59:12;;;;;;;9.38;7.07;;;11.30;99.90;;;;;;5032192;28;20037;-61
2023/09/23 06:01:40;;;;;;;9.13;7.65;;;11.20;99.90;;;;;;5032870;28;20037;-59
2023/09/23 06:04:09;;;;;;;8.77;6.95;;;11.20;99.90;;;;;;5031703;28;20042;-60
2023/09/23 06:06:38;;;;;;;10.70;7.75;;;11.20;99.90;;;;;;5036488;28;20052;-60
2023/09/23 06:09:05;;;;;;;10.88;8.90;;;11.20;99.90;;;;;;5036071;28;20053;-60
2023/09/23 06:11:32;;;;;;;11.48;8.75;;;11.20;99.90;;;;;;5037193;28;20041;-59
2023/09/23 06:13:57;;;;;;;10.38;8.60;;;11.20;99.90;;;;;;5025893;28;20041;-57
2023/09/23 06:16:23;;;;;;;14.45;9.43;;;11.20;99.90;;;;;;5015844;28;20064;-56
2023/09/23 06:18:49;;;;;;;13.63;9.48;;;11.20;99.90;;;;;;5015636;28;20481;-59
2023/09/23 06:21:15;;;;;;;11.65;9.25;;;11.30;99.90;;;;;;5016543;28;20118;-57
2023/09/23 06:23:40;;;;;;;10.20;8.63;;;11.30;99.90;;;;;;5016611;28;20056;-58
2023/09/23 06:26:06;;;;;;;13.45;10.48;;;11.30;99.90;;;;;;5014015;28;20379;-58
2023/09/23 06:28:34;;;;;;;13.43;10.40;;;11.30;99.90;;;;;;5013208;28;20037;-57
2023/09/23 06:31:00;;;;;;;17.65;12.10;;;11.30;99.90;;;;;;5010153;28;20068;-57
2023/09/23 06:33:25;;;;;;;16.15;11.63;;;11.40;99.90;;;;;;5028759;28;20552;-58
2023/09/23 06:35:52;;;;;;;18.75;11.70;;;11.40;99.90;;;;;;5013943;28;20051;-56
2023/09/23 06:38:18;;;;;;;14.52;11.20;;;11.40;99.90;;;;;;5012306;28;20049;-57
2023/09/23 06:40:43;;;;;;;18.45;12.77;;;11.50;99.90;;;;;;5013383;28;20092;-56
2023/09/23 06:43:09;;;;;;;14.18;10.90;;;11.50;99.90;;;;;;5013219;28;20037;-58
2023/09/23 06:45:35;;;;;;;16.00;12.05;;;11.60;99.90;;;;;;5015818;28;20381;-57
2023/09/23 06:48:02;;;;;;;15.75;11.90;;;11.60;99.90;;;;;;5013589;28;20046;-59
2023/09/23 06:50:28;;;;;;;18.83;12.55;;;11.70;99.90;;;;;;5020886;28;20050;-58
2023/09/23 06:52:54;;;;;;;16.67;12.43;;;11.80;99.90;;;;;;5013270;28;20422;-57
2023/09/23 06:55:20;;;;;;;16.92;13.13;;;11.80;99.90;;;;;;5014670;28;20046;-55
2023/09/23 06:57:45;;;;;;;18.27;13.73;;;11.90;99.90;;;;;;5015325;28;20041;-57
2023/09/23 07:00:12;;;;;;;23.20;15.50;;;11.90;99.90;;;;;;5012909;28;20053;-57
2023/09/23 07:02:37;;;;;;;23.30;15.63;;;12.00;99.90;;;;;;5014613;28;20057;-57
2023/09/23 07:05:03;;;;;;;25.50;16.98;;;12.00;99.90;;;;;;5013667;28;20041;-57
2023/09/23 07:07:32;;;;;;;26.05;15.95;;;12.00;99.90;;;;;;5013166;28;20056;-58
2023/09/23 07:09:57;;;;;;;23.73;15.98;;;12.10;99.90;;;;;;5013809;28;20585;-58
2023/09/23 07:12:23;;;;;;;19.42;15.02;;;12.10;99.90;;;;;;5013700;28;20118;-57
2023/09/23 07:14:49;;;;;;;21.90;15.85;;;12.20;99.90;;;;;;5015751;28;20038;-57
2023/09/23 07:17:15;;;;;;;18.98;15.38;;;12.20;99.90;;;;;;5015481;28;20069;-57
2023/09/23 07:19:41;;;;;;;22.38;16.52;;;12.30;99.90;;;;;;5014064;28;20532;-57
2023/09/23 07:22:07;;;;;;;26.73;15.77;;;12.30;99.90;;;;;;5012728;28;20587;-58
2023/09/23 07:24:35;;;;;;;20.55;15.18;;;12.40;99.90;;;;;;5015207;28;20088;-58
2023/09/23 07:27:01;;;;;;;25.65;15.43;;;12.40;99.90;;;;;;5013772;28;20033;-58
2023/09/23 07:29:27;;;;;;;22.58;15.02;;;12.50;99.90;;;;;;5013388;28;20096;-57
2023/09/23 07:31:53;;;;;;;22.23;14.73;;;12.50;99.90;;;;;;5012966;28;20050;-57
2023/09/23 07:34:19;;;;;;;21.42;14.57;;;12.50;99.90;;;;;;5012229;28;20045;-58
2023/09/23 07:36:46;;;;;;;24.40;14.80;;;12.50;99.90;;;;;;5015243;28;20076;-57
2023/09/23 07:39:15;;;;;;;21.00;14.30;;;12.60;99.90;;;;;;5023605;28;20620;-56
2023/09/23 07:41:41;;;;;;;21.83;14.50;;;12.60;99.90;;;;;;5015009;28;20516;-57
2023/09/23 07:44:07;;;;;;;22.20;14.30;;;12.70;99.90;;;;;;5027138;28;20065;-57
2023/09/23 07:46:32;;;;;;;18.85;13.60;;;12.80;99.90;;;;;;5027889;28;20034;-57
2023/09/23 07:48:58;;;;;;;22.35;15.00;;;12.90;99.90;;;;;;5029335;28;20191;-59
2023/09/23 07:51:25;;;;;;;22.35;14.73;;;13.00;99.90;;;;;;5010089;28;20345;-57
2023/09/23 07:53:53;;;;;;;18.77;13.32;;;13.10;99.90;;;;;;5028390;28;20046;-59
2023/09/23 07:56:19;;;;;;;18.73;12.77;;;13.30;99.90;;;;;;5020317;28;20040;-58
2023/09/23 07:58:45;;;;;;;22.10;14.02;;;13.50;99.90;;;;;;5015634;28;20057;-58
2023/09/23 08:01:11;;;;;;;18.45;12.98;;;13.70;99.90;;;;;;5015184;28;20127;-58
2023/09/23 08:03:36;;;;;;;21.92;13.38;;;13.90;99.90;;;;;;5017941;28;20053;-57
2023/09/23 08:06:02;;;;;;;16.75;12.93;;;13.90;99.90;;;;;;5016937;28;20069;-58
2023/09/23 08:08:28;;;;;;;18.58;13.52;;;14.00;99.90;;;;;;5015101;28;20481;-57
2023/09/23 08:10:54;;;;;;;18.13;13.77;;;14.00;99.90;;;;;;5010896;28;20038;-58
2023/09/23 08:13:20;;;;;;;19.17;13.38;;;14.00;99.90;;;;;;5013781;28;20118;-58
2023/09/23 08:15:49;;;;;;;19.20;13.20;;;14.00;99.90;;;;;;5017485;28;20537;-58
2023/09/23 08:18:15;;;;;;;17.50;12.93;;;14.00;99.90;;;;;;5017364;28;20053;-58
2023/09/23 08:20:40;;;;;;;21.05;13.10;;;14.00;99.90;;;;;;5017264;28;20501;-57
2023/09/23 08:23:07;;;;;;;22.42;13.80;;;14.00;99.90;;;;;;5014911;28;20125;-58
2023/09/23 08:25:34;;;;;;;19.02;12.90;;;14.10;99.90;;;;;;5016616;28;20790;-56
2023/09/23 08:28:01;;;;;;;21.30;13.27;;;14.10;99.90;;;;;;5016656;28;20045;-58
2023/09/23 08:30:27;;;;;;;20.98;13.25;;;14.20;99.90;;;;;;5015284;28;20464;-58
2023/09/23 08:32:55;;;;;;;21.52;13.02;;;14.30;99.90;;;;;;5016085;28;20132;-58
2023/09/23 08:35:21;;;;;;;15.45;11.40;;;14.40;99.90;;;;;;5016419;28;20046;-58
2023/09/23 08:37:47;;;;;;;13.60;10.52;;;14.40;99.90;;;;;;5013637;28;20094;-56
2023/09/23 08:40:13;;;;;;;12.10;9.93;;;14.50;99.90;;;;;;5012900;28;20057;-59
2023/09/23 08:42:39;;;;;;;13.63;9.13;;;14.70;99.90;;;;;;5014635;28;20046;-57
2023/09/23 08:45:09;;;;;;;15.68;10.10;;;14.80;99.90;;;;;;5016163;28;20405;-58
2023/09/23 08:47:38;;;;;;;15.45;10.85;;;14.90;99.90;;;;;;5014519;28;20050;-58
2023/09/23 08:50:10;;;;;;;14.63;9.57;;;15.00;99.90;;;;;;5013760;28;20084;-58
2023/09/23 08:52:36;;;;;;;12.07;7.60;;;15.00;99.90;;;;;;5016330;28;20045;-57
2023/09/23 08:55:04;;;;;;;15.55;7.80;;;15.10;99.90;;;;;;5028106;28;20546;-56
2023/09/23 08:57:33;;;;;;;12.05;7.38;;;15.00;99.90;;;;;;5012669;28;20128;-58
2023/09/23 08:59:58;;;;;;;12.00;7.65;;;15.10;99.90;;;;;;5015188;28;20533;-58
2023/09/23 09:02:25;;;;;;;8.57;7.15;;;15.20;99.90;;;;;;5012901;28;20045;-57
2023/09/23 09:04:54;;;;;;;10.60;7.53;;;15.40;99.90;;;;;;5014126;28;20060;-58
2023/09/23 09:07:31;;;;;;;8.65;6.60;;;15.50;99.90;;;;;;5020626;28;20086;-59
2023/09/23 09:09:57;;;;;;;8.57;6.53;;;15.70;99.90;;;;;;5016320;28;20080;-57
2023/09/23 09:12:23;;;;;;;10.38;6.18;;;15.80;99.90;;;;;;5011888;28;20220;-57
2023/09/23 09:14:51;;;;;;;7.82;5.40;;;16.00;99.90;;;;;;5013668;28;20033;-57
2023/09/23 09:17:21;;;;;;;10.80;6.55;;;16.10;99.90;;;;;;5014523;28;20073;-60
2023/09/23 09:19:47;;;;;;;7.45;5.55;;;16.30;99.90;;;;;;5013067;28;20045;-57
2023/09/23 09:22:20;;;;;;;9.13;6.07;;;16.50;99.90;;;;;;5012697;28;20071;-58
2023/09/23 09:24:46;;;;;;;9.30;6.18;;;16.60;99.90;;;;;;5015564;28;20539;-58
2023/09/23 09:27:15;;;;;;;7.38;6.00;;;16.70;99.90;;;;;;5012689;28;20040;-59
2023/09/23 09:29:42;;;;;;;11.48;5.68;;;16.90;99.90;;;;;;5015172;28;20406;-59
2023/09/23 09:32:12;;;;;;;9.68;5.50;;;17.00;99.90;;;;;;5029092;28;20057;-58
2023/09/23 09:34:45;;;;;;;9.88;5.68;;;17.10;99.90;;;;;;5012688;28;20041;-58
2023/09/23 09:37:13;;;;;;;8.52;5.13;;;17.30;99.90;;;;;;5013537;28;20088;-58
2023/09/23 09:39:49;;;;;;;5.32;4.78;;;17.40;99.90;;;;;;5013474;28;20042;-59
2023/09/23 09:42:20;;;;;;;8.90;4.30;;;17.60;99.90;;;;;;4997126;28;20077;-59
2023/09/23 09:44:47;;;;;;;7.45;4.60;;;17.80;99.90;;;;;;5015395;28;20410;-59
2023/09/23 09:47:16;;;;;;;9.38;4.18;;;17.90;99.90;;;;;;5015654;28;20041;-57
2023/09/23 09:49:44;;;;;;;5.38;3.03;;;17.80;99.90;;;;;;5014196;28;20045;-58
2023/09/23 09:52:13;;;;;;;6.15;2.80;;;17.90;99.90;;;;;;5015461;28;20458;-58
2023/09/23 09:54:40;;;;;;;5.80;3.05;;;18.00;99.90;;;;;;5012107;28;20045;-58
2023/09/23 09:57:12;;;;;;;7.72;3.10;;;18.00;99.90;;;;;;5015240;28;20543;-58
2023/09/23 09:59:39;;;;;;;5.22;2.90;;;18.10;99.90;;;;;;4998542;28;20038;-59
2023/09/23 10:02:06;;;;;;;4.43;2.03;;;18.10;99.90;;;;;;5015593;28;20094;-59
2023/09/23 10:04:32;;;;;;;6.15;2.67;;;18.20;99.90;;;;;;5015237;28;20041;-60
2023/09/23 10:06:58;;;;;;;5.97;2.40;;;18.20;99.90;;;;;;5016855;28;20045;-59
2023/09/23 10:09:31;;;;;;;5.95;2.30;;;18.30;99.90;;;;;;5016561;28;20041;-58
2023/09/23 10:11:59;;;;;;;7.63;2.80;;;18.40;99.90;;;;;;5015191;28;20409;-58
2023/09/23 10:14:28;;;;;;;8.40;2.50;;;18.30;99.90;;;;;;5014390;28;20069;-58
2023/09/23 10:17:05;;;;;;;9.20;3.10;;;18.10;99.90;;;;;;5013008;28;20398;-58
2023/09/23 10:19:39;;;;;;;6.43;3.40;;;17.90;99.90;;;;;;5004665;28;20041;-58
2023/09/23 10:22:11;;;;;;;8.48;2.97;;;17.70;99.90;;;;;;5015564;28;20045;-58
2023/09/23 10:24:36;;;;;;;6.45;2.70;;;17.60;99.90;;;;;;5013823;28;20125;-59
2023/09/23 10:27:06;;;;;;;5.78;2.55;;;17.40;99.90;;;;;;5032225;28;20069;-58
2023/09/23 10:29:46;;;;;;;6.18;2.30;;;17.30;99.90;;;;;;5035106;28;20037;-59
2023/09/23 10:32:17;;;;;;;3.35;2.30;;;17.20;99.90;;;;;;5021934;28;20488;-57
2023/09/23 10:34:47;;;;;;;6.45;2.35;;;17.00;99.90;;;;;;5036765;28;20042;-55
2023/09/23 10:37:22;;;;;;;6.50;2.60;;;16.90;99.90;;;;;;5038998;28;20025;-58
2023/09/23 10:39:48;;;;;;;4.97;2.80;;;16.80;99.90;;;;;;5038699;28;20040;-58
2023/09/23 10:42:14;;;;;;;5.50;2.88;;;16.80;99.90;;;;;;5025877;28;20049;-58
2023/09/23 10:44:40;;;;;;;5.80;2.97;;;16.70;99.90;;;;;;5039050;28;20379;-58
2023/09/23 10:47:06;;;;;;;5.90;2.92;;;16.60;99.90;;;;;;5024471;28;20107;-57
2023/09/23 10:49:32;;;;;;;4.75;3.47;;;16.70;99.90;;;;;;5011586;28;20113;-57
2023/09/23 10:51:57;;;;;;;6.15;3.47;;;17.00;99.90;;;;;;5010506;28;20049;-55
2023/09/23 10:54:24;;;;;;;6.43;3.45;;;17.20;99.90;;;;;;5012947;28;20463;-57
2023/09/23 10:56:51;;;;;;;12.07;4.05;;;17.40;99.90;;;;;;4995415;28;20029;-58
2023/09/23 10:59:17;;;;;;;6.20;3.78;;;17.40;99.90;;;;;;5010883;28;20392;-57
2023/09/23 11:01:45;;;;;;;6.32;3.55;;;17.30;99.90;;;;;;5012957;28;20128;-55
2023/09/23 11:04:11;;;;;;;4.85;3.70;;;17.10;99.90;;;;;;5013323;28;20544;-58
2023/09/23 11:06:37;;;;;;;4.30;2.97;;;17.00;99.90;;;;;;5027267;28;20048;-58
2023/09/23 11:09:06;;;;;;;5.95;3.65;;;16.90;99.90;;;;;;5012737;28;20086;-56
2023/09/23 11:11:36;;;;;;;4.97;3.10;;;16.90;99.90;;;;;;5011910;28;20065;-58
2023/09/23 11:14:11;;;;;;;5.50;3.05;;;16.90;99.90;;;;;;5011684;28;20587;-58
2023/09/23 11:16:37;;;;;;;5.28;3.63;;;16.90;99.90;;;;;;5017036;28;20053;-58
2023/09/23 11:19:07;;;;;;;7.30;4.13;;;17.10;99.90;;;;;;5015694;28;20629;-56
2023/09/23 11:21:44;;;;;;;5.85;3.92;;;17.20;99.90;;;;;;5015259;28;20042;-56
2023/09/23 11:24:10;;;;;;;9.43;3.28;;;17.20;99.90;;;;;;5014262;28;20087;-57
2023/09/23 11:26:39;;;;;;;2.72;2.50;;;17.10;99.90;;;;;;5012393;28;20041;-57
2023/09/23 11:29:08;;;;;;;7.20;2.80;;;17.10;99.90;;;;;;5013948;28;20061;-57
2023/09/23 11:31:34;;;;;;;4.60;2.85;;;17.10;99.90;;;;;;5017871;28;20398;-51
2023/09/23 11:34:00;;;;;;;7.70;2.70;;;17.00;99.90;;;;;;5028612;28;20040;-55
2023/09/23 11:36:26;;;;;;;7.25;2.70;;;17.00;99.90;;;;;;5014959;28;20045;-55
2023/09/23 11:38:51;;;;;;;6.35;3.20;;;16.90;99.90;;;;;;5012713;28;20425;-55
2023/09/23 11:41:17;;;;;;;6.47;2.80;;;16.90;99.90;;;;;;5014709;28;20066;-56
2023/09/23 11:43:44;;;;;;;5.65;2.58;;;16.90;99.90;;;;;;5014460;28;20505;-55
2023/09/23 11:46:11;;;;;;;3.50;2.10;;;16.80;99.90;;;;;;5028981;28;20038;-53
2023/09/23 11:48:37;;;;;;;5.18;2.45;;;16.90;99.90;;;;;;5015876;28;20053;-55
2023/09/23 11:51:03;;;;;;;5.93;2.63;;;16.90;99.90;;;;;;5014966;28;20508;-54
2023/09/23 11:53:29;;;;;;;4.15;2.78;;;17.10;99.90;;;;;;5011561;28;20037;-55
2023/09/23 11:55:55;;;;;;;4.70;2.13;;;17.10;99.90;;;;;;5012863;28;20049;-55
2023/09/23 11:58:20;;;;;;;3.05;1.02;;;17.20;99.90;;;;;;5017460;28;20037;-55
2023/09/23 12:00:47;;;;;;;1.33;0.60;;;17.10;99.90;;;;;;5013141;28;20048;-56
2023/09/23 12:03:14;;;;;;;1.05;0.70;;;17.00;99.90;;;;;;5008656;28;20073;-55
2023/09/23 12:05:41;;;;;;;1.00;0.60;;;16.80;99.90;;;;;;5016435;28;20080;-55
2023/09/23 12:08:09;;;;;;;2.55;0.75;;;16.80;99.90;;;;;;5030784;28;20046;-56
2023/09/23 12:10:36;;;;;;;1.85;0.90;;;16.70;99.90;;;;;;5017669;28;20112;-55
2023/09/23 12:13:06;;;;;;;0.68;0.60;;;16.70;99.90;;;;;;5012324;28;20073;-55
2023/09/23 12:15:33;;;;;;;3.35;0.70;;;16.70;99.90;;;;;;5016851;28;20033;-55
2023/09/23 12:18:00;;;;;;;1.67;0.70;;;16.70;99.90;;;;;;5012169;28;20705;-54
2023/09/23 12:20:26;;;;;;;1.38;0.70;;;16.80;99.90;;;;;;5015193;28;20646;-55
2023/09/23 12:22:52;;;;;;;2.00;0.70;;;16.80;99.90;;;;;;5017142;28;20061;-55
2023/09/23 12:25:18;;;;;;;0.98;0.68;;;16.80;99.90;;;;;;5018335;28;20550;-55
2023/09/23 12:27:44;;;;;;;1.30;1.00;;;16.90;99.90;;;;;;5015992;28;20052;-56
2023/09/23 12:30:10;;;;;;;1.20;0.88;;;16.90;99.90;;;;;;5016272;28;20037;-55
2023/09/23 12:32:35;;;;;;;1.67;0.90;;;17.00;99.90;;;;;;5020843;28;20064;-55
2023/09/23 12:35:01;;;;;;;0.85;0.70;;;17.10;99.90;;;;;;5015477;28;20042;-55
2023/09/23 12:37:27;;;;;;;1.05;0.68;;;17.30;99.90;;;;;;5017701;28;20084;-56
2023/09/23 12:39:56;;;;;;;1.75;0.77;;;17.60;99.90;;;;;;5014933;28;20034;-55
2023/09/23 12:42:22;;;;;;;1.58;0.70;;;17.80;99.90;;;;;;5020976;28;20393;-56